Hovedside
METAR-TAF:

METAR-TAF

Lufthavner :

Ørland hovedflystasjon

Ørland, Norge

breddegrad: 63-42N, lengdegrad: 009-36E, høyde over havet: 0 m

Gjeldene værobservasjon

Denne rapporten ble laget for 32 minutter siden, klokken 11:50 UTC
Vind 3 kt fra Sør-sørøst
Temperatur 2°C
Luftfuktighet 80%
Trykk 1002 hPa
Sikt: 0600 m
snøbyger

METAR: ENOL 241150Z 15003KT 0600 SHSN VV005 02/M01 Q1002 TEMPO 9999 SCT012CB BKN020

Tid: 13:22 (12:22 UTC)

Varsel

Varsel gyldig fra 24. klokken 12 UTC til 25. klokken 12 UTC
Vind 8 kt fra Vest
Sikt 10 km eller mer
Få skyer i en høyde av 1400 ft, Bygeskyer.
Brutte skyer i en høyde av 4000 ft
Midlertidig
fra 24. klokken 12 UTC til 24. klokken 24 UTC
Sikt: 0700 m
i en høyde av 600 ft
snøbyger, lett hagl eller graupel
Blir
fra 25. klokken 01 UTC til 25. klokken 04 UTC
Vind 10 kt fra Sørøst

TAF: ENOL 2412/2512 28008KT 9999 FEW014CB BKN040 TEMPO 2412/2424 0700 SHSNGS VV006 BECMG 2501/2504 13010KT

Værobservasjoner og værvarsel for over 4000 flyplasser (METAR- og TAF-rapporter).

Tilgjengelige stasjoner er representert av de røde og gule prikkene på kartet.

Hold musepekeren over prikken for å se navnet på stasjonen.

Klikk så for å se værobservasjoner og -varsler.

For å forandre kartet kan du klikke på den grønne knappen med svart kryss for å zoome inn, på den grønne knappen med strek for å zoome ut, eller på de grønne pilene for å se tilstøtende kart.


METAR-TAF: